sensor_id;sensor_type;location;lat;lon;timestamp;P1;durP1;ratioP1;P2;durP2;ratioP2
23768;SDS011;12064;50.890;5.424;2023-07-20T00:00:07;1.40;;;1.27;;
23768;SDS011;12064;50.890;5.424;2023-07-20T00:08:58;1.50;;;1.40;;
23768;SDS011;12064;50.890;5.424;2023-07-20T00:17:49;1.50;;;1.27;;
23768;SDS011;12064;50.890;5.424;2023-07-20T00:26:40;2.47;;;1.40;;
23768;SDS011;12064;50.890;5.424;2023-07-20T00:35:30;1.40;;;1.30;;
23768;SDS011;12064;50.890;5.424;2023-07-20T00:44:21;1.20;;;1.10;;
23768;SDS011;12064;50.890;5.424;2023-07-20T00:53:14;1.60;;;1.50;;
23768;SDS011;12064;50.890;5.424;2023-07-20T01:02:04;1.25;;;1.15;;
23768;SDS011;12064;50.890;5.424;2023-07-20T01:11:04;1.30;;;1.20;;
23768;SDS011;12064;50.890;5.424;2023-07-20T01:20:02;1.13;;;1.02;;
23768;SDS011;12064;50.890;5.424;2023-07-20T01:37:57;2.35;;;1.50;;
23768;SDS011;12064;50.890;5.424;2023-07-20T01:46:49;1.25;;;1.15;;
23768;SDS011;12064;50.890;5.424;2023-07-20T01:55:40;1.63;;;1.40;;
23768;SDS011;12064;50.890;5.424;2023-07-20T02:04:30;1.37;;;1.20;;
23768;SDS011;12064;50.890;5.424;2023-07-20T02:13:21;1.40;;;1.23;;
23768;SDS011;12064;50.890;5.424;2023-07-20T02:22:12;1.63;;;1.30;;
23768;SDS011;12064;50.890;5.424;2023-07-20T02:31:02;2.90;;;1.47;;
23768;SDS011;12064;50.890;5.424;2023-07-20T02:39:53;1.95;;;1.30;;
23768;SDS011;12064;50.890;5.424;2023-07-20T02:48:44;2.57;;;1.40;;
23768;SDS011;12064;50.890;5.424;2023-07-20T02:57:34;2.90;;;1.40;;
23768;SDS011;12064;50.890;5.424;2023-07-20T03:06:25;1.67;;;1.20;;
23768;SDS011;12064;50.890;5.424;2023-07-20T03:15:16;1.63;;;1.25;;
23768;SDS011;12064;50.890;5.424;2023-07-20T03:24:07;1.52;;;1.42;;
23768;SDS011;12064;50.890;5.424;2023-07-20T03:32:58;1.75;;;1.52;;
23768;SDS011;12064;50.890;5.424;2023-07-20T03:41:49;1.57;;;1.30;;
23768;SDS011;12064;50.890;5.424;2023-07-20T03:50:40;3.07;;;1.50;;
23768;SDS011;12064;50.890;5.424;2023-07-20T03:59:30;1.42;;;1.30;;
23768;SDS011;12064;50.890;5.424;2023-07-20T04:08:22;1.30;;;1.20;;
23768;SDS011;12064;50.890;5.424;2023-07-20T04:17:14;2.67;;;1.50;;
23768;SDS011;12064;50.890;5.424;2023-07-20T04:26:05;2.97;;;1.50;;
23768;SDS011;12064;50.890;5.424;2023-07-20T04:34:56;1.48;;;1.38;;
23768;SDS011;12064;50.890;5.424;2023-07-20T04:43:50;1.63;;;1.30;;
23768;SDS011;12064;50.890;5.424;2023-07-20T04:52:41;2.03;;;1.40;;
23768;SDS011;12064;50.890;5.424;2023-07-20T05:01:31;1.63;;;1.42;;
23768;SDS011;12064;50.890;5.424;2023-07-20T05:10:23;2.13;;;1.43;;
23768;SDS011;12064;50.890;5.424;2023-07-20T05:19:13;1.92;;;1.48;;
23768;SDS011;12064;50.890;5.424;2023-07-20T05:28:04;1.60;;;1.50;;
23768;SDS011;12064;50.890;5.424;2023-07-20T05:36:55;2.30;;;1.50;;
23768;SDS011;12064;50.890;5.424;2023-07-20T05:45:46;1.83;;;1.40;;
23768;SDS011;12064;50.890;5.424;2023-07-20T05:54:37;2.75;;;1.48;;
23768;SDS011;12064;50.890;5.424;2023-07-20T06:03:28;2.50;;;1.40;;
23768;SDS011;12064;50.890;5.424;2023-07-20T06:12:19;2.83;;;1.55;;
23768;SDS011;12064;50.890;5.424;2023-07-20T06:21:10;4.17;;;1.50;;
23768;SDS011;12064;50.890;5.424;2023-07-20T06:30:00;2.75;;;1.75;;
23768;SDS011;12064;50.890;5.424;2023-07-20T06:38:51;3.73;;;2.10;;
23768;SDS011;12064;50.890;5.424;2023-07-20T06:47:42;2.50;;;2.22;;
23768;SDS011;12064;50.890;5.424;2023-07-20T06:56:33;3.93;;;3.53;;
23768;SDS011;12064;50.890;5.424;2023-07-20T07:05:23;5.30;;;3.50;;
23768;SDS011;12064;50.890;5.424;2023-07-20T07:14:14;5.87;;;4.10;;
23768;SDS011;12064;50.890;5.424;2023-07-20T07:23:05;4.30;;;3.90;;
23768;SDS011;12064;50.890;5.424;2023-07-20T07:31:56;6.07;;;4.20;;
23768;SDS011;12064;50.890;5.424;2023-07-20T07:40:47;6.38;;;4.07;;
23768;SDS011;12064;50.890;5.424;2023-07-20T07:49:37;5.73;;;4.60;;
23768;SDS011;12064;50.890;5.424;2023-07-20T07:58:28;8.02;;;6.18;;
23768;SDS011;12064;50.890;5.424;2023-07-20T08:07:19;9.40;;;4.65;;
23768;SDS011;12064;50.890;5.424;2023-07-20T08:16:10;8.00;;;4.90;;
23768;SDS011;12064;50.890;5.424;2023-07-20T08:25:01;4.30;;;3.70;;
23768;SDS011;12064;50.890;5.424;2023-07-20T08:33:51;9.03;;;4.37;;
23768;SDS011;12064;50.890;5.424;2023-07-20T08:42:42;5.73;;;3.37;;
23768;SDS011;12064;50.890;5.424;2023-07-20T08:51:33;3.42;;;2.55;;
23768;SDS011;12064;50.890;5.424;2023-07-20T09:00:27;3.15;;;2.65;;
23768;SDS011;12064;50.890;5.424;2023-07-20T09:09:19;2.72;;;2.30;;
23768;SDS011;12064;50.890;5.424;2023-07-20T09:18:10;2.40;;;2.00;;
23768;SDS011;12064;50.890;5.424;2023-07-20T09:27:01;3.83;;;1.80;;
23768;SDS011;12064;50.890;5.424;2023-07-20T09:36:01;1.88;;;1.52;;
23768;SDS011;12064;50.890;5.424;2023-07-20T09:44:53;2.40;;;1.55;;
23768;SDS011;12064;50.890;5.424;2023-07-20T09:53:43;3.28;;;1.80;;
23768;SDS011;12064;50.890;5.424;2023-07-20T10:02:36;1.45;;;1.35;;
23768;SDS011;12064;50.890;5.424;2023-07-20T10:11:36;2.08;;;1.52;;
23768;SDS011;12064;50.890;5.424;2023-07-20T10:20:30;1.42;;;1.33;;
23768;SDS011;12064;50.890;5.424;2023-07-20T10:29:23;1.60;;;1.50;;
23768;SDS011;12064;50.890;5.424;2023-07-20T10:38:15;1.20;;;1.10;;
23768;SDS011;12064;50.890;5.424;2023-07-20T10:47:09;1.77;;;1.33;;
23768;SDS011;12064;50.890;5.424;2023-07-20T11:05:05;2.90;;;1.40;;
23768;SDS011;12064;50.890;5.424;2023-07-20T11:22:47;1.45;;;1.15;;
23768;SDS011;12064;50.890;5.424;2023-07-20T11:31:39;1.30;;;1.20;;
23768;SDS011;12064;50.890;5.424;2023-07-20T11:40:30;1.50;;;1.40;;
23768;SDS011;12064;50.890;5.424;2023-07-20T11:49:21;1.60;;;1.50;;
23768;SDS011;12064;50.890;5.424;2023-07-20T11:58:11;1.57;;;1.40;;
23768;SDS011;12064;50.890;5.424;2023-07-20T12:07:02;1.93;;;1.40;;
23768;SDS011;12064;50.890;5.424;2023-07-20T12:15:53;1.88;;;1.30;;
23768;SDS011;12064;50.890;5.424;2023-07-20T12:24:47;1.15;;;1.15;;
23768;SDS011;12064;50.890;5.424;2023-07-20T12:33:42;1.20;;;1.10;;
23768;SDS011;12064;50.890;5.424;2023-07-20T12:42:32;1.35;;;1.20;;
23768;SDS011;12064;50.890;5.424;2023-07-20T12:51:23;1.20;;;1.10;;
23768;SDS011;12064;50.890;5.424;2023-07-20T13:00:14;1.10;;;1.10;;
23768;SDS011;12064;50.890;5.424;2023-07-20T13:09:06;1.40;;;1.30;;
23768;SDS011;12064;50.890;5.424;2023-07-20T13:17:57;1.30;;;1.20;;
23768;SDS011;12064;50.890;5.424;2023-07-20T13:26:48;1.10;;;1.10;;
23768;SDS011;12064;50.890;5.424;2023-07-20T13:35:39;1.33;;;1.13;;
23768;SDS011;12064;50.890;5.424;2023-07-20T13:44:30;1.53;;;1.30;;
23768;SDS011;12064;50.890;5.424;2023-07-20T13:53:24;1.13;;;1.08;;
23768;SDS011;12064;50.890;5.424;2023-07-20T14:02:14;1.30;;;1.20;;
23768;SDS011;12064;50.890;5.424;2023-07-20T14:11:05;1.52;;;1.30;;
23768;SDS011;12064;50.890;5.424;2023-07-20T14:19:56;1.20;;;1.10;;
23768;SDS011;12064;50.890;5.424;2023-07-20T14:28:47;1.27;;;1.20;;
23768;SDS011;12064;50.890;5.424;2023-07-20T14:37:37;1.10;;;1.10;;
23768;SDS011;12064;50.890;5.424;2023-07-20T14:46:28;1.77;;;1.10;;
23768;SDS011;12064;50.890;5.424;2023-07-20T14:55:19;1.35;;;1.25;;
23768;SDS011;12064;50.890;5.424;2023-07-20T15:04:09;2.03;;;1.30;;
23768;SDS011;12064;50.890;5.424;2023-07-20T15:13:00;1.77;;;1.30;;
23768;SDS011;12064;50.890;5.424;2023-07-20T15:21:51;2.88;;;1.40;;
23768;SDS011;12064;50.890;5.424;2023-07-20T15:30:41;2.55;;;1.40;;
23768;SDS011;12064;50.890;5.424;2023-07-20T15:39:32;2.35;;;1.80;;
23768;SDS011;12064;50.890;5.424;2023-07-20T15:48:23;2.17;;;1.43;;
23768;SDS011;12064;50.890;5.424;2023-07-20T15:57:13;3.13;;;1.30;;
23768;SDS011;12064;50.890;5.424;2023-07-20T16:06:04;2.08;;;1.55;;
23768;SDS011;12064;50.890;5.424;2023-07-20T16:14:55;2.80;;;1.50;;
23768;SDS011;12064;50.890;5.424;2023-07-20T16:23:45;2.17;;;1.40;;
23768;SDS011;12064;50.890;5.424;2023-07-20T16:32:36;1.40;;;1.30;;
23768;SDS011;12064;50.890;5.424;2023-07-20T16:41:28;2.25;;;1.30;;
23768;SDS011;12064;50.890;5.424;2023-07-20T16:50:18;3.28;;;1.60;;
23768;SDS011;12064;50.890;5.424;2023-07-20T16:59:09;2.17;;;1.38;;
23768;SDS011;12064;50.890;5.424;2023-07-20T17:08:00;1.40;;;1.30;;
23768;SDS011;12064;50.890;5.424;2023-07-20T17:16:50;1.90;;;1.60;;
23768;SDS011;12064;50.890;5.424;2023-07-20T17:25:45;1.65;;;1.35;;
23768;SDS011;12064;50.890;5.424;2023-07-20T17:34:36;1.60;;;1.40;;
23768;SDS011;12064;50.890;5.424;2023-07-20T17:43:27;1.50;;;1.40;;
23768;SDS011;12064;50.890;5.424;2023-07-20T17:52:18;1.80;;;1.30;;
23768;SDS011;12064;50.890;5.424;2023-07-20T18:01:08;1.85;;;1.50;;
23768;SDS011;12064;50.890;5.424;2023-07-20T18:10:02;1.43;;;1.30;;
23768;SDS011;12064;50.890;5.424;2023-07-20T18:18:54;2.45;;;1.50;;
23768;SDS011;12064;50.890;5.424;2023-07-20T18:27:45;1.58;;;1.25;;
23768;SDS011;12064;50.890;5.424;2023-07-20T18:36:38;2.13;;;1.48;;
23768;SDS011;12064;50.890;5.424;2023-07-20T18:45:28;2.58;;;1.70;;
23768;SDS011;12064;50.890;5.424;2023-07-20T18:54:19;2.27;;;1.60;;
23768;SDS011;12064;50.890;5.424;2023-07-20T19:03:10;2.75;;;1.70;;
23768;SDS011;12064;50.890;5.424;2023-07-20T19:12:00;3.17;;;1.43;;
23768;SDS011;12064;50.890;5.424;2023-07-20T19:20:51;3.93;;;1.60;;
23768;SDS011;12064;50.890;5.424;2023-07-20T19:29:42;3.88;;;1.40;;
23768;SDS011;12064;50.890;5.424;2023-07-20T19:38:32;2.10;;;1.60;;
23768;SDS011;12064;50.890;5.424;2023-07-20T19:47:23;2.73;;;1.70;;
23768;SDS011;12064;50.890;5.424;2023-07-20T19:56:14;2.03;;;1.30;;
23768;SDS011;12064;50.890;5.424;2023-07-20T20:05:05;2.00;;;1.30;;
23768;SDS011;12064;50.890;5.424;2023-07-20T20:13:58;2.60;;;1.40;;
23768;SDS011;12064;50.890;5.424;2023-07-20T20:22:48;1.98;;;1.70;;
23768;SDS011;12064;50.890;5.424;2023-07-20T20:31:39;1.95;;;1.50;;
23768;SDS011;12064;50.890;5.424;2023-07-20T20:40:30;2.95;;;1.70;;
23768;SDS011;12064;50.890;5.424;2023-07-20T20:49:21;2.53;;;1.40;;
23768;SDS011;12064;50.890;5.424;2023-07-20T20:58:11;1.50;;;1.40;;
23768;SDS011;12064;50.890;5.424;2023-07-20T21:07:02;1.40;;;1.30;;
23768;SDS011;12064;50.890;5.424;2023-07-20T21:15:53;3.22;;;1.55;;
23768;SDS011;12064;50.890;5.424;2023-07-20T21:24:44;1.77;;;1.45;;
23768;SDS011;12064;50.890;5.424;2023-07-20T21:33:35;1.73;;;1.63;;
23768;SDS011;12064;50.890;5.424;2023-07-20T21:42:26;1.60;;;1.50;;
23768;SDS011;12064;50.890;5.424;2023-07-20T21:51:17;2.28;;;1.65;;
23768;SDS011;12064;50.890;5.424;2023-07-20T22:00:09;1.77;;;1.50;;
23768;SDS011;12064;50.890;5.424;2023-07-20T22:09:01;2.22;;;1.52;;
23768;SDS011;12064;50.890;5.424;2023-07-20T22:17:52;1.60;;;1.50;;
23768;SDS011;12064;50.890;5.424;2023-07-20T22:26:43;1.88;;;1.50;;
23768;SDS011;12064;50.890;5.424;2023-07-20T22:35:34;1.57;;;1.23;;
23768;SDS011;12064;50.890;5.424;2023-07-20T22:44:25;1.35;;;1.25;;
23768;SDS011;12064;50.890;5.424;2023-07-20T22:53:16;1.65;;;1.30;;
23768;SDS011;12064;50.890;5.424;2023-07-20T23:02:06;1.80;;;1.52;;
23768;SDS011;12064;50.890;5.424;2023-07-20T23:10:59;1.83;;;1.50;;
23768;SDS011;12064;50.890;5.424;2023-07-20T23:19:50;1.33;;;1.23;;
23768;SDS011;12064;50.890;5.424;2023-07-20T23:28:40;1.00;;;1.00;;
23768;SDS011;12064;50.890;5.424;2023-07-20T23:37:31;1.60;;;1.50;;
23768;SDS011;12064;50.890;5.424;2023-07-20T23:46:22;1.50;;;1.20;;
23768;SDS011;12064;50.890;5.424;2023-07-20T23:55:17;2.13;;;1.10;;
